KLWV/LWV METAR and TAF weather

Enter ICAO airport designator
Station Type Date Time Source
KLWV METAR 2020/01/27 13:53 UTC NOAA

KLWV 271353Z AUTO 32007KT 4SM BR OVC006 M01/M02 A2999 RMK AO2 SLP160 T10061022


Station Type Date Time Source
KLWV Decoded METAR 2020/01/27 13:53 UTC NOAA

LAWRENCEVILLE-VINCENNES INTERNATIONAL , IL, United States (KLWV) 38-46N 87-36W 131M
Jan 27, 2020 - 08:53 AM EST / 2020.01.27 1353 UTC
Wind: from the NW (320 degrees) at 8 MPH (7 KT):0
Visibility: 4 mile(s):0
Sky conditions: overcast
Weather: mist
Temperature: 30.9 F (-0.6 C)
Windchill: 23 F (-5 C):1
Dew Point: 28.0 F (-2.2 C)
Relative Humidity: 88%
Pressure (altimeter): 29.99 in. Hg (1015 hPa)
ob: KLWV 271353Z AUTO 32007KT 4SM BR OVC006 M01/M02 A2999 RMK AO2 SLP160 T10061022
cycle: 14

Station Type Date Time Source
KLWV TAF UTC NOAA

Error!

Example: see airport list